sensor_id;sensor_type;location;lat;lon;timestamp;P1;durP1;ratioP1;P2;durP2;ratioP2
2338;SDS011;1180;51.438;6.978;2022-07-29T00:01:45;3.20;;;1.63;;
2338;SDS011;1180;51.438;6.978;2022-07-29T00:04:11;5.80;;;1.70;;
2338;SDS011;1180;51.438;6.978;2022-07-29T00:06:36;3.37;;;1.70;;
2338;SDS011;1180;51.438;6.978;2022-07-29T00:09:02;2.73;;;1.30;;
2338;SDS011;1180;51.438;6.978;2022-07-29T00:11:27;3.13;;;1.97;;
2338;SDS011;1180;51.438;6.978;2022-07-29T00:13:53;4.27;;;1.77;;
2338;SDS011;1180;51.438;6.978;2022-07-29T00:16:18;2.70;;;1.63;;
2338;SDS011;1180;51.438;6.978;2022-07-29T00:18:43;3.40;;;1.80;;
2338;SDS011;1180;51.438;6.978;2022-07-29T00:21:09;2.07;;;1.60;;
2338;SDS011;1180;51.438;6.978;2022-07-29T00:23:34;5.53;;;1.80;;
2338;SDS011;1180;51.438;6.978;2022-07-29T00:26:00;2.73;;;1.47;;
2338;SDS011;1180;51.438;6.978;2022-07-29T00:28:25;3.57;;;1.70;;
2338;SDS011;1180;51.438;6.978;2022-07-29T00:30:51;1.73;;;1.50;;
2338;SDS011;1180;51.438;6.978;2022-07-29T00:33:16;3.07;;;1.50;;
2338;SDS011;1180;51.438;6.978;2022-07-29T00:35:42;3.57;;;1.80;;
2338;SDS011;1180;51.438;6.978;2022-07-29T00:38:10;3.03;;;1.80;;
2338;SDS011;1180;51.438;6.978;2022-07-29T00:40:39;2.30;;;1.30;;
2338;SDS011;1180;51.438;6.978;2022-07-29T00:43:04;5.20;;;1.43;;
2338;SDS011;1180;51.438;6.978;2022-07-29T00:45:30;4.90;;;1.90;;
2338;SDS011;1180;51.438;6.978;2022-07-29T00:47:55;3.37;;;2.00;;
2338;SDS011;1180;51.438;6.978;2022-07-29T00:50:21;3.03;;;1.80;;
2338;SDS011;1180;51.438;6.978;2022-07-29T00:52:47;2.03;;;1.53;;
2338;SDS011;1180;51.438;6.978;2022-07-29T00:55:14;2.30;;;1.90;;
2338;SDS011;1180;51.438;6.978;2022-07-29T00:57:40;2.67;;;1.50;;
2338;SDS011;1180;51.438;6.978;2022-07-29T01:00:08;2.93;;;1.87;;
2338;SDS011;1180;51.438;6.978;2022-07-29T01:02:36;3.17;;;1.40;;
2338;SDS011;1180;51.438;6.978;2022-07-29T01:05:02;2.07;;;1.70;;
2338;SDS011;1180;51.438;6.978;2022-07-29T01:07:29;5.10;;;1.50;;
2338;SDS011;1180;51.438;6.978;2022-07-29T01:09:57;4.03;;;1.87;;
2338;SDS011;1180;51.438;6.978;2022-07-29T01:12:26;3.20;;;1.57;;
2338;SDS011;1180;51.438;6.978;2022-07-29T01:14:56;3.30;;;2.00;;
2338;SDS011;1180;51.438;6.978;2022-07-29T01:17:27;3.57;;;1.43;;
2338;SDS011;1180;51.438;6.978;2022-07-29T01:31:09;2.43;;;1.33;;
2338;SDS011;1180;51.438;6.978;2022-07-29T01:33:38;2.37;;;1.40;;
2338;SDS011;1180;51.438;6.978;2022-07-29T01:36:18;5.77;;;2.60;;
2338;SDS011;1180;51.438;6.978;2022-07-29T01:42:01;2.87;;;1.47;;
2338;SDS011;1180;51.438;6.978;2022-07-29T01:44:35;4.10;;;2.00;;
2338;SDS011;1180;51.438;6.978;2022-07-29T01:47:14;4.33;;;1.60;;
2338;SDS011;1180;51.438;6.978;2022-07-29T01:49:43;2.50;;;1.53;;
2338;SDS011;1180;51.438;6.978;2022-07-29T01:52:16;2.00;;;1.50;;
2338;SDS011;1180;51.438;6.978;2022-07-29T01:54:52;2.47;;;1.57;;
2338;SDS011;1180;51.438;6.978;2022-07-29T01:57:21;4.83;;;2.00;;
2338;SDS011;1180;51.438;6.978;2022-07-29T01:59:53;2.33;;;1.50;;
2338;SDS011;1180;51.438;6.978;2022-07-29T02:02:20;2.43;;;1.90;;
2338;SDS011;1180;51.438;6.978;2022-07-29T02:04:47;3.70;;;1.60;;
2338;SDS011;1180;51.438;6.978;2022-07-29T02:07:17;3.23;;;1.60;;
2338;SDS011;1180;51.438;6.978;2022-07-29T02:09:44;2.50;;;1.67;;
2338;SDS011;1180;51.438;6.978;2022-07-29T02:12:12;3.70;;;1.27;;
2338;SDS011;1180;51.438;6.978;2022-07-29T02:14:43;2.93;;;1.57;;
2338;SDS011;1180;51.438;6.978;2022-07-29T02:17:12;2.10;;;1.63;;
2338;SDS011;1180;51.438;6.978;2022-07-29T02:19:40;3.70;;;1.90;;
2338;SDS011;1180;51.438;6.978;2022-07-29T02:22:09;2.33;;;1.53;;
2338;SDS011;1180;51.438;6.978;2022-07-29T02:24:36;2.53;;;1.70;;
2338;SDS011;1180;51.438;6.978;2022-07-29T02:27:05;2.90;;;1.60;;
2338;SDS011;1180;51.438;6.978;2022-07-29T02:29:32;3.03;;;1.60;;
2338;SDS011;1180;51.438;6.978;2022-07-29T02:31:59;3.13;;;1.97;;
2338;SDS011;1180;51.438;6.978;2022-07-29T02:34:27;3.20;;;1.60;;
2338;SDS011;1180;51.438;6.978;2022-07-29T02:36:54;2.50;;;2.00;;
2338;SDS011;1180;51.438;6.978;2022-07-29T02:39:20;2.73;;;1.80;;
2338;SDS011;1180;51.438;6.978;2022-07-29T02:41:48;3.73;;;1.73;;
2338;SDS011;1180;51.438;6.978;2022-07-29T02:44:17;2.27;;;1.53;;
2338;SDS011;1180;51.438;6.978;2022-07-29T02:46:49;2.80;;;1.73;;
2338;SDS011;1180;51.438;6.978;2022-07-29T02:49:23;3.07;;;1.60;;
2338;SDS011;1180;51.438;6.978;2022-07-29T02:52:04;2.07;;;1.83;;
2338;SDS011;1180;51.438;6.978;2022-07-29T02:57:25;4.00;;;1.83;;
2338;SDS011;1180;51.438;6.978;2022-07-29T02:59:52;5.57;;;2.00;;
2338;SDS011;1180;51.438;6.978;2022-07-29T03:02:21;4.20;;;2.00;;
2338;SDS011;1180;51.438;6.978;2022-07-29T03:04:47;2.80;;;1.40;;
2338;SDS011;1180;51.438;6.978;2022-07-29T03:07:14;2.90;;;1.93;;
2338;SDS011;1180;51.438;6.978;2022-07-29T03:09:42;5.33;;;2.27;;
2338;SDS011;1180;51.438;6.978;2022-07-29T03:12:10;3.63;;;2.00;;
2338;SDS011;1180;51.438;6.978;2022-07-29T03:14:36;4.83;;;1.60;;
2338;SDS011;1180;51.438;6.978;2022-07-29T03:17:02;4.97;;;2.37;;
2338;SDS011;1180;51.438;6.978;2022-07-29T03:19:28;3.93;;;2.00;;
2338;SDS011;1180;51.438;6.978;2022-07-29T03:21:55;4.33;;;1.63;;
2338;SDS011;1180;51.438;6.978;2022-07-29T03:24:32;3.63;;;1.73;;
2338;SDS011;1180;51.438;6.978;2022-07-29T03:26:59;4.50;;;1.90;;
2338;SDS011;1180;51.438;6.978;2022-07-29T03:29:25;3.03;;;2.17;;
2338;SDS011;1180;51.438;6.978;2022-07-29T03:31:51;2.93;;;1.40;;
2338;SDS011;1180;51.438;6.978;2022-07-29T03:34:16;3.30;;;1.90;;
2338;SDS011;1180;51.438;6.978;2022-07-29T03:36:42;4.27;;;2.10;;
2338;SDS011;1180;51.438;6.978;2022-07-29T03:39:07;2.80;;;2.10;;
2338;SDS011;1180;51.438;6.978;2022-07-29T03:41:34;6.67;;;2.07;;
2338;SDS011;1180;51.438;6.978;2022-07-29T03:44:04;3.80;;;1.47;;
2338;SDS011;1180;51.438;6.978;2022-07-29T03:46:31;3.30;;;2.30;;
2338;SDS011;1180;51.438;6.978;2022-07-29T03:48:59;4.27;;;2.13;;
2338;SDS011;1180;51.438;6.978;2022-07-29T03:51:28;7.10;;;1.80;;
2338;SDS011;1180;51.438;6.978;2022-07-29T03:53:53;2.13;;;1.50;;
2338;SDS011;1180;51.438;6.978;2022-07-29T03:56:21;6.10;;;2.20;;
2338;SDS011;1180;51.438;6.978;2022-07-29T03:58:48;3.70;;;1.83;;
2338;SDS011;1180;51.438;6.978;2022-07-29T04:01:16;3.87;;;2.27;;
2338;SDS011;1180;51.438;6.978;2022-07-29T04:06:36;3.87;;;2.20;;
2338;SDS011;1180;51.438;6.978;2022-07-29T04:09:10;4.73;;;1.97;;
2338;SDS011;1180;51.438;6.978;2022-07-29T04:11:36;2.97;;;1.60;;
2338;SDS011;1180;51.438;6.978;2022-07-29T04:14:04;4.37;;;1.97;;
2338;SDS011;1180;51.438;6.978;2022-07-29T04:16:29;2.63;;;1.73;;
2338;SDS011;1180;51.438;6.978;2022-07-29T04:18:55;3.10;;;1.60;;
2338;SDS011;1180;51.438;6.978;2022-07-29T04:21:20;2.10;;;1.47;;
2338;SDS011;1180;51.438;6.978;2022-07-29T04:23:45;3.37;;;2.03;;
2338;SDS011;1180;51.438;6.978;2022-07-29T04:26:14;3.57;;;2.47;;
2338;SDS011;1180;51.438;6.978;2022-07-29T04:28:40;3.13;;;1.90;;
2338;SDS011;1180;51.438;6.978;2022-07-29T04:31:07;2.90;;;1.60;;
2338;SDS011;1180;51.438;6.978;2022-07-29T04:33:33;5.07;;;1.93;;
2338;SDS011;1180;51.438;6.978;2022-07-29T04:35:58;2.20;;;1.50;;
2338;SDS011;1180;51.438;6.978;2022-07-29T04:38:23;4.20;;;1.90;;
2338;SDS011;1180;51.438;6.978;2022-07-29T04:40:49;2.47;;;1.80;;
2338;SDS011;1180;51.438;6.978;2022-07-29T04:43:14;3.37;;;1.50;;
2338;SDS011;1180;51.438;6.978;2022-07-29T04:45:40;6.33;;;2.60;;
2338;SDS011;1180;51.438;6.978;2022-07-29T04:48:06;3.30;;;1.67;;
2338;SDS011;1180;51.438;6.978;2022-07-29T04:50:31;3.00;;;1.80;;
2338;SDS011;1180;51.438;6.978;2022-07-29T04:52:57;2.07;;;1.63;;
2338;SDS011;1180;51.438;6.978;2022-07-29T04:55:22;2.13;;;1.70;;
2338;SDS011;1180;51.438;6.978;2022-07-29T04:57:48;2.57;;;1.70;;
2338;SDS011;1180;51.438;6.978;2022-07-29T05:00:13;2.53;;;1.33;;
2338;SDS011;1180;51.438;6.978;2022-07-29T05:02:39;6.50;;;2.23;;
2338;SDS011;1180;51.438;6.978;2022-07-29T05:05:04;4.83;;;2.70;;
2338;SDS011;1180;51.438;6.978;2022-07-29T05:07:30;5.03;;;2.17;;
2338;SDS011;1180;51.438;6.978;2022-07-29T05:09:55;5.20;;;3.20;;
2338;SDS011;1180;51.438;6.978;2022-07-29T05:12:22;5.37;;;2.43;;
2338;SDS011;1180;51.438;6.978;2022-07-29T05:14:48;7.93;;;3.50;;
2338;SDS011;1180;51.438;6.978;2022-07-29T05:17:13;4.70;;;3.03;;
2338;SDS011;1180;51.438;6.978;2022-07-29T05:19:39;6.10;;;3.77;;
2338;SDS011;1180;51.438;6.978;2022-07-29T05:22:04;10.67;;;2.80;;
2338;SDS011;1180;51.438;6.978;2022-07-29T05:24:30;4.57;;;2.90;;
2338;SDS011;1180;51.438;6.978;2022-07-29T05:26:55;4.40;;;2.73;;
2338;SDS011;1180;51.438;6.978;2022-07-29T05:29:21;3.73;;;2.83;;
2338;SDS011;1180;51.438;6.978;2022-07-29T05:31:46;5.43;;;2.53;;
2338;SDS011;1180;51.438;6.978;2022-07-29T05:34:12;4.23;;;2.63;;
2338;SDS011;1180;51.438;6.978;2022-07-29T05:36:37;4.53;;;2.27;;
2338;SDS011;1180;51.438;6.978;2022-07-29T05:39:02;3.67;;;2.33;;
2338;SDS011;1180;51.438;6.978;2022-07-29T05:41:31;2.57;;;2.30;;
2338;SDS011;1180;51.438;6.978;2022-07-29T05:43:56;4.17;;;2.20;;
2338;SDS011;1180;51.438;6.978;2022-07-29T05:46:23;7.10;;;2.60;;
2338;SDS011;1180;51.438;6.978;2022-07-29T05:48:48;7.40;;;3.00;;
2338;SDS011;1180;51.438;6.978;2022-07-29T05:51:13;3.30;;;2.57;;
2338;SDS011;1180;51.438;6.978;2022-07-29T05:53:39;8.23;;;2.90;;
2338;SDS011;1180;51.438;6.978;2022-07-29T05:56:04;6.07;;;2.60;;
2338;SDS011;1180;51.438;6.978;2022-07-29T05:58:30;3.33;;;2.20;;
2338;SDS011;1180;51.438;6.978;2022-07-29T06:00:56;6.20;;;2.50;;
2338;SDS011;1180;51.438;6.978;2022-07-29T06:03:24;5.60;;;2.73;;
2338;SDS011;1180;51.438;6.978;2022-07-29T06:05:52;4.67;;;2.70;;
2338;SDS011;1180;51.438;6.978;2022-07-29T06:08:17;3.13;;;2.50;;
2338;SDS011;1180;51.438;6.978;2022-07-29T06:10:43;5.87;;;4.10;;
2338;SDS011;1180;51.438;6.978;2022-07-29T06:13:09;6.87;;;3.03;;
2338;SDS011;1180;51.438;6.978;2022-07-29T06:15:34;4.23;;;3.03;;
2338;SDS011;1180;51.438;6.978;2022-07-29T06:18:00;6.73;;;3.27;;
2338;SDS011;1180;51.438;6.978;2022-07-29T06:20:25;6.17;;;2.30;;
2338;SDS011;1180;51.438;6.978;2022-07-29T06:22:51;5.70;;;2.90;;
2338;SDS011;1180;51.438;6.978;2022-07-29T06:25:17;3.67;;;2.67;;
2338;SDS011;1180;51.438;6.978;2022-07-29T06:27:42;4.27;;;2.90;;
2338;SDS011;1180;51.438;6.978;2022-07-29T06:30:08;3.80;;;2.70;;
2338;SDS011;1180;51.438;6.978;2022-07-29T06:32:33;3.60;;;2.40;;
2338;SDS011;1180;51.438;6.978;2022-07-29T06:35:00;4.30;;;3.10;;
2338;SDS011;1180;51.438;6.978;2022-07-29T06:37:25;3.87;;;2.90;;
2338;SDS011;1180;51.438;6.978;2022-07-29T06:39:51;2.90;;;2.40;;
2338;SDS011;1180;51.438;6.978;2022-07-29T06:42:36;5.33;;;2.70;;
2338;SDS011;1180;51.438;6.978;2022-07-29T06:45:02;4.50;;;3.10;;
2338;SDS011;1180;51.438;6.978;2022-07-29T06:47:27;4.47;;;2.53;;
2338;SDS011;1180;51.438;6.978;2022-07-29T06:49:52;2.87;;;2.57;;
2338;SDS011;1180;51.438;6.978;2022-07-29T06:52:18;8.33;;;4.33;;
2338;SDS011;1180;51.438;6.978;2022-07-29T06:54:43;5.20;;;3.00;;
2338;SDS011;1180;51.438;6.978;2022-07-29T06:57:13;4.77;;;2.90;;
2338;SDS011;1180;51.438;6.978;2022-07-29T06:59:38;4.13;;;2.47;;
2338;SDS011;1180;51.438;6.978;2022-07-29T07:02:04;4.90;;;2.67;;
2338;SDS011;1180;51.438;6.978;2022-07-29T07:04:29;5.40;;;2.73;;
2338;SDS011;1180;51.438;6.978;2022-07-29T07:06:54;4.00;;;2.80;;
2338;SDS011;1180;51.438;6.978;2022-07-29T07:09:20;3.53;;;2.87;;
2338;SDS011;1180;51.438;6.978;2022-07-29T07:11:46;4.40;;;2.90;;
2338;SDS011;1180;51.438;6.978;2022-07-29T07:14:11;2.50;;;2.30;;
2338;SDS011;1180;51.438;6.978;2022-07-29T07:16:36;3.90;;;2.80;;
2338;SDS011;1180;51.438;6.978;2022-07-29T07:19:02;4.13;;;2.63;;
2338;SDS011;1180;51.438;6.978;2022-07-29T07:21:28;3.10;;;2.80;;
2338;SDS011;1180;51.438;6.978;2022-07-29T07:23:53;3.87;;;2.60;;
2338;SDS011;1180;51.438;6.978;2022-07-29T07:26:19;3.60;;;2.70;;
2338;SDS011;1180;51.438;6.978;2022-07-29T07:28:44;8.57;;;3.27;;
2338;SDS011;1180;51.438;6.978;2022-07-29T07:31:10;5.00;;;2.80;;
2338;SDS011;1180;51.438;6.978;2022-07-29T07:33:36;4.33;;;2.63;;
2338;SDS011;1180;51.438;6.978;2022-07-29T07:36:01;3.20;;;2.47;;
2338;SDS011;1180;51.438;6.978;2022-07-29T07:38:26;3.30;;;2.47;;
2338;SDS011;1180;51.438;6.978;2022-07-29T07:40:52;7.37;;;3.00;;
2338;SDS011;1180;51.438;6.978;2022-07-29T07:43:17;3.40;;;2.53;;
2338;SDS011;1180;51.438;6.978;2022-07-29T07:45:42;15.37;;;3.80;;
2338;SDS011;1180;51.438;6.978;2022-07-29T07:48:08;3.63;;;2.50;;
2338;SDS011;1180;51.438;6.978;2022-07-29T07:50:35;5.70;;;2.80;;
2338;SDS011;1180;51.438;6.978;2022-07-29T07:53:01;5.40;;;3.67;;
2338;SDS011;1180;51.438;6.978;2022-07-29T07:55:27;5.37;;;3.00;;
2338;SDS011;1180;51.438;6.978;2022-07-29T07:57:53;4.10;;;2.53;;
2338;SDS011;1180;51.438;6.978;2022-07-29T08:00:19;3.17;;;2.67;;
2338;SDS011;1180;51.438;6.978;2022-07-29T08:02:44;5.57;;;3.03;;
2338;SDS011;1180;51.438;6.978;2022-07-29T08:05:10;8.30;;;2.63;;
2338;SDS011;1180;51.438;6.978;2022-07-29T08:07:38;4.53;;;2.77;;
2338;SDS011;1180;51.438;6.978;2022-07-29T08:10:04;4.63;;;3.23;;
2338;SDS011;1180;51.438;6.978;2022-07-29T08:12:30;6.70;;;3.20;;
2338;SDS011;1180;51.438;6.978;2022-07-29T08:14:55;7.30;;;3.10;;
2338;SDS011;1180;51.438;6.978;2022-07-29T08:17:21;4.57;;;2.90;;
2338;SDS011;1180;51.438;6.978;2022-07-29T08:19:46;3.87;;;2.97;;
2338;SDS011;1180;51.438;6.978;2022-07-29T08:22:13;3.70;;;3.00;;
2338;SDS011;1180;51.438;6.978;2022-07-29T08:24:39;4.00;;;2.63;;
2338;SDS011;1180;51.438;6.978;2022-07-29T08:27:08;4.27;;;3.40;;
2338;SDS011;1180;51.438;6.978;2022-07-29T08:29:34;4.17;;;2.80;;
2338;SDS011;1180;51.438;6.978;2022-07-29T08:32:00;6.27;;;3.20;;
2338;SDS011;1180;51.438;6.978;2022-07-29T08:34:26;6.40;;;3.67;;
2338;SDS011;1180;51.438;6.978;2022-07-29T08:36:52;9.33;;;4.37;;
2338;SDS011;1180;51.438;6.978;2022-07-29T08:39:17;7.87;;;4.20;;
2338;SDS011;1180;51.438;6.978;2022-07-29T08:41:42;5.40;;;3.50;;
2338;SDS011;1180;51.438;6.978;2022-07-29T08:44:08;8.57;;;2.97;;
2338;SDS011;1180;51.438;6.978;2022-07-29T08:46:34;5.03;;;3.30;;
2338;SDS011;1180;51.438;6.978;2022-07-29T08:49:03;6.93;;;3.30;;
2338;SDS011;1180;51.438;6.978;2022-07-29T08:51:29;7.60;;;3.70;;
2338;SDS011;1180;51.438;6.978;2022-07-29T08:53:55;5.80;;;4.03;;
2338;SDS011;1180;51.438;6.978;2022-07-29T08:56:21;4.47;;;4.03;;
2338;SDS011;1180;51.438;6.978;2022-07-29T08:58:48;6.53;;;4.17;;
2338;SDS011;1180;51.438;6.978;2022-07-29T09:01:16;6.90;;;4.50;;
2338;SDS011;1180;51.438;6.978;2022-07-29T09:03:43;5.03;;;3.90;;
2338;SDS011;1180;51.438;6.978;2022-07-29T09:06:11;6.37;;;4.07;;
2338;SDS011;1180;51.438;6.978;2022-07-29T09:08:39;5.40;;;4.10;;
2338;SDS011;1180;51.438;6.978;2022-07-29T09:11:04;7.00;;;3.77;;
2338;SDS011;1180;51.438;6.978;2022-07-29T09:13:32;5.77;;;4.03;;
2338;SDS011;1180;51.438;6.978;2022-07-29T09:15:57;5.13;;;4.23;;
2338;SDS011;1180;51.438;6.978;2022-07-29T09:18:56;6.67;;;5.00;;
2338;SDS011;1180;51.438;6.978;2022-07-29T09:21:22;6.67;;;4.23;;
2338;SDS011;1180;51.438;6.978;2022-07-29T09:24:10;8.53;;;4.30;;
2338;SDS011;1180;51.438;6.978;2022-07-29T09:26:39;9.60;;;4.73;;
2338;SDS011;1180;51.438;6.978;2022-07-29T09:31:43;6.83;;;4.57;;
2338;SDS011;1180;51.438;6.978;2022-07-29T09:34:10;12.80;;;5.07;;
2338;SDS011;1180;51.438;6.978;2022-07-29T09:39:05;7.47;;;4.57;;
2338;SDS011;1180;51.438;6.978;2022-07-29T09:41:30;6.47;;;4.20;;
2338;SDS011;1180;51.438;6.978;2022-07-29T09:44:09;5.50;;;4.60;;
2338;SDS011;1180;51.438;6.978;2022-07-29T09:46:34;5.10;;;3.97;;
2338;SDS011;1180;51.438;6.978;2022-07-29T09:49:11;12.40;;;5.10;;
2338;SDS011;1180;51.438;6.978;2022-07-29T09:51:38;8.57;;;4.50;;
2338;SDS011;1180;51.438;6.978;2022-07-29T09:56:48;6.83;;;4.73;;
2338;SDS011;1180;51.438;6.978;2022-07-29T09:59:13;8.73;;;4.30;;
2338;SDS011;1180;51.438;6.978;2022-07-29T10:01:39;5.90;;;3.80;;
2338;SDS011;1180;51.438;6.978;2022-07-29T10:04:05;4.97;;;4.10;;
2338;SDS011;1180;51.438;6.978;2022-07-29T10:06:30;5.87;;;4.47;;
2338;SDS011;1180;51.438;6.978;2022-07-29T10:09:06;15.13;;;5.90;;
2338;SDS011;1180;51.438;6.978;2022-07-29T10:11:35;8.73;;;4.37;;
2338;SDS011;1180;51.438;6.978;2022-07-29T10:14:02;8.93;;;4.20;;
2338;SDS011;1180;51.438;6.978;2022-07-29T10:16:28;6.17;;;4.90;;
2338;SDS011;1180;51.438;6.978;2022-07-29T10:18:57;8.07;;;4.90;;
2338;SDS011;1180;51.438;6.978;2022-07-29T10:21:24;5.30;;;3.93;;
2338;SDS011;1180;51.438;6.978;2022-07-29T10:23:50;4.90;;;4.30;;
2338;SDS011;1180;51.438;6.978;2022-07-29T10:26:16;4.20;;;3.80;;
2338;SDS011;1180;51.438;6.978;2022-07-29T10:28:42;4.73;;;3.63;;
2338;SDS011;1180;51.438;6.978;2022-07-29T10:31:08;9.03;;;5.10;;
2338;SDS011;1180;51.438;6.978;2022-07-29T10:34:21;8.20;;;4.33;;
2338;SDS011;1180;51.438;6.978;2022-07-29T10:42:21;5.83;;;4.13;;
2338;SDS011;1180;51.438;6.978;2022-07-29T10:44:49;5.60;;;4.47;;
2338;SDS011;1180;51.438;6.978;2022-07-29T10:47:25;4.63;;;4.17;;
2338;SDS011;1180;51.438;6.978;2022-07-29T10:49:55;4.47;;;4.07;;
2338;SDS011;1180;51.438;6.978;2022-07-29T10:52:21;7.47;;;4.83;;
2338;SDS011;1180;51.438;6.978;2022-07-29T10:54:49;5.60;;;3.90;;
2338;SDS011;1180;51.438;6.978;2022-07-29T11:00:29;4.67;;;3.90;;
2338;SDS011;1180;51.438;6.978;2022-07-29T11:02:55;5.93;;;4.13;;
2338;SDS011;1180;51.438;6.978;2022-07-29T11:05:22;10.10;;;4.30;;
2338;SDS011;1180;51.438;6.978;2022-07-29T11:10:43;7.57;;;3.93;;
2338;SDS011;1180;51.438;6.978;2022-07-29T11:13:09;8.17;;;4.27;;
2338;SDS011;1180;51.438;6.978;2022-07-29T11:16:08;11.03;;;4.80;;
2338;SDS011;1180;51.438;6.978;2022-07-29T11:18:27;4.77;;;4.10;;
2338;SDS011;1180;51.438;6.978;2022-07-29T11:20:52;4.23;;;3.57;;
2338;SDS011;1180;51.438;6.978;2022-07-29T11:23:31;10.43;;;4.20;;
2338;SDS011;1180;51.438;6.978;2022-07-29T11:28:36;11.50;;;4.90;;
2338;SDS011;1180;51.438;6.978;2022-07-29T11:31:13;6.70;;;4.20;;
2338;SDS011;1180;51.438;6.978;2022-07-29T11:33:44;7.93;;;4.50;;
2338;SDS011;1180;51.438;6.978;2022-07-29T11:36:10;6.23;;;4.60;;
2338;SDS011;1180;51.438;6.978;2022-07-29T11:38:40;8.03;;;5.40;;
2338;SDS011;1180;51.438;6.978;2022-07-29T11:41:24;7.30;;;4.37;;
2338;SDS011;1180;51.438;6.978;2022-07-29T11:49:12;5.70;;;4.40;;
2338;SDS011;1180;51.438;6.978;2022-07-29T11:51:37;4.97;;;3.87;;
2338;SDS011;1180;51.438;6.978;2022-07-29T11:54:03;6.57;;;4.40;;
2338;SDS011;1180;51.438;6.978;2022-07-29T11:56:30;7.77;;;3.73;;
2338;SDS011;1180;51.438;6.978;2022-07-29T11:59:04;8.07;;;3.90;;
2338;SDS011;1180;51.438;6.978;2022-07-29T12:01:31;4.23;;;3.30;;
2338;SDS011;1180;51.438;6.978;2022-07-29T12:04:04;7.47;;;4.03;;
2338;SDS011;1180;51.438;6.978;2022-07-29T12:06:30;8.30;;;3.63;;
2338;SDS011;1180;51.438;6.978;2022-07-29T12:08:55;8.60;;;3.53;;
2338;SDS011;1180;51.438;6.978;2022-07-29T12:11:21;6.47;;;3.77;;
2338;SDS011;1180;51.438;6.978;2022-07-29T12:13:47;5.03;;;4.27;;
2338;SDS011;1180;51.438;6.978;2022-07-29T12:16:13;4.67;;;3.80;;
2338;SDS011;1180;51.438;6.978;2022-07-29T12:18:38;4.53;;;3.67;;
2338;SDS011;1180;51.438;6.978;2022-07-29T12:21:04;7.53;;;3.63;;
2338;SDS011;1180;51.438;6.978;2022-07-29T12:23:30;6.17;;;4.70;;
2338;SDS011;1180;51.438;6.978;2022-07-29T12:25:57;7.87;;;4.97;;
2338;SDS011;1180;51.438;6.978;2022-07-29T12:28:23;14.83;;;5.00;;
2338;SDS011;1180;51.438;6.978;2022-07-29T12:30:49;9.90;;;4.30;;
2338;SDS011;1180;51.438;6.978;2022-07-29T12:33:24;5.53;;;3.63;;
2338;SDS011;1180;51.438;6.978;2022-07-29T12:35:54;9.63;;;4.10;;
2338;SDS011;1180;51.438;6.978;2022-07-29T12:38:21;5.50;;;3.50;;
2338;SDS011;1180;51.438;6.978;2022-07-29T12:40:47;9.30;;;4.03;;
2338;SDS011;1180;51.438;6.978;2022-07-29T12:43:17;8.47;;;4.20;;
2338;SDS011;1180;51.438;6.978;2022-07-29T12:45:48;4.93;;;3.97;;
2338;SDS011;1180;51.438;6.978;2022-07-29T12:48:15;4.67;;;3.80;;
2338;SDS011;1180;51.438;6.978;2022-07-29T12:50:52;6.00;;;4.03;;
2338;SDS011;1180;51.438;6.978;2022-07-29T12:53:22;6.03;;;3.63;;
2338;SDS011;1180;51.438;6.978;2022-07-29T12:55:49;6.63;;;4.07;;
2338;SDS011;1180;51.438;6.978;2022-07-29T13:03:57;4.67;;;3.20;;
2338;SDS011;1180;51.438;6.978;2022-07-29T13:07:28;7.20;;;4.10;;
2338;SDS011;1180;51.438;6.978;2022-07-29T13:09:41;6.27;;;3.50;;
2338;SDS011;1180;51.438;6.978;2022-07-29T13:12:09;5.40;;;3.60;;
2338;SDS011;1180;51.438;6.978;2022-07-29T13:14:43;8.03;;;3.40;;
2338;SDS011;1180;51.438;6.978;2022-07-29T13:17:11;6.73;;;3.40;;
2338;SDS011;1180;51.438;6.978;2022-07-29T13:19:38;5.93;;;3.37;;
2338;SDS011;1180;51.438;6.978;2022-07-29T13:22:15;5.10;;;3.50;;
2338;SDS011;1180;51.438;6.978;2022-07-29T13:24:52;11.30;;;4.30;;
2338;SDS011;1180;51.438;6.978;2022-07-29T13:27:19;5.13;;;3.80;;
2338;SDS011;1180;51.438;6.978;2022-07-29T13:29:46;7.20;;;3.17;;
2338;SDS011;1180;51.438;6.978;2022-07-29T13:32:13;7.57;;;3.47;;
2338;SDS011;1180;51.438;6.978;2022-07-29T13:34:39;9.70;;;4.23;;
2338;SDS011;1180;51.438;6.978;2022-07-29T13:37:05;5.50;;;3.53;;
2338;SDS011;1180;51.438;6.978;2022-07-29T13:39:31;6.00;;;3.63;;
2338;SDS011;1180;51.438;6.978;2022-07-29T13:41:56;3.93;;;2.97;;
2338;SDS011;1180;51.438;6.978;2022-07-29T13:44:22;6.80;;;3.97;;
2338;SDS011;1180;51.438;6.978;2022-07-29T13:46:47;8.83;;;3.60;;
2338;SDS011;1180;51.438;6.978;2022-07-29T13:49:12;6.30;;;3.63;;
2338;SDS011;1180;51.438;6.978;2022-07-29T13:51:38;4.47;;;4.03;;
2338;SDS011;1180;51.438;6.978;2022-07-29T13:54:03;8.57;;;4.13;;
2338;SDS011;1180;51.438;6.978;2022-07-29T13:56:29;11.27;;;4.43;;
2338;SDS011;1180;51.438;6.978;2022-07-29T13:58:54;9.57;;;4.10;;
2338;SDS011;1180;51.438;6.978;2022-07-29T14:01:20;4.33;;;3.40;;
2338;SDS011;1180;51.438;6.978;2022-07-29T14:03:46;4.80;;;3.53;;
2338;SDS011;1180;51.438;6.978;2022-07-29T14:06:11;7.47;;;3.67;;
2338;SDS011;1180;51.438;6.978;2022-07-29T14:08:37;4.13;;;3.30;;
2338;SDS011;1180;51.438;6.978;2022-07-29T14:11:02;4.03;;;3.70;;
2338;SDS011;1180;51.438;6.978;2022-07-29T14:13:28;6.93;;;3.90;;
2338;SDS011;1180;51.438;6.978;2022-07-29T14:15:53;4.53;;;3.70;;
2338;SDS011;1180;51.438;6.978;2022-07-29T14:18:19;7.00;;;3.43;;
2338;SDS011;1180;51.438;6.978;2022-07-29T14:20:44;4.87;;;3.93;;
2338;SDS011;1180;51.438;6.978;2022-07-29T14:23:09;5.70;;;4.83;;
2338;SDS011;1180;51.438;6.978;2022-07-29T14:25:35;4.30;;;3.70;;
2338;SDS011;1180;51.438;6.978;2022-07-29T14:28:01;7.73;;;4.13;;
2338;SDS011;1180;51.438;6.978;2022-07-29T14:30:26;4.90;;;2.70;;
2338;SDS011;1180;51.438;6.978;2022-07-29T14:32:52;4.70;;;3.37;;
2338;SDS011;1180;51.438;6.978;2022-07-29T14:35:17;7.13;;;4.70;;
2338;SDS011;1180;51.438;6.978;2022-07-29T14:37:42;6.23;;;3.63;;
2338;SDS011;1180;51.438;6.978;2022-07-29T14:40:09;4.80;;;3.33;;
2338;SDS011;1180;51.438;6.978;2022-07-29T14:42:35;7.37;;;3.70;;
2338;SDS011;1180;51.438;6.978;2022-07-29T14:45:02;8.13;;;4.00;;
2338;SDS011;1180;51.438;6.978;2022-07-29T14:47:27;4.10;;;3.33;;
2338;SDS011;1180;51.438;6.978;2022-07-29T14:49:52;6.83;;;4.00;;
2338;SDS011;1180;51.438;6.978;2022-07-29T14:52:18;6.77;;;4.10;;
2338;SDS011;1180;51.438;6.978;2022-07-29T14:54:43;5.37;;;3.53;;
2338;SDS011;1180;51.438;6.978;2022-07-29T14:57:08;7.23;;;4.20;;
2338;SDS011;1180;51.438;6.978;2022-07-29T14:59:34;7.27;;;4.10;;
2338;SDS011;1180;51.438;6.978;2022-07-29T15:01:59;12.00;;;4.87;;
2338;SDS011;1180;51.438;6.978;2022-07-29T15:04:25;5.43;;;3.97;;
2338;SDS011;1180;51.438;6.978;2022-07-29T15:06:50;6.20;;;3.90;;
2338;SDS011;1180;51.438;6.978;2022-07-29T15:09:16;6.30;;;4.27;;
2338;SDS011;1180;51.438;6.978;2022-07-29T15:11:43;4.23;;;3.47;;
2338;SDS011;1180;51.438;6.978;2022-07-29T15:14:08;7.00;;;4.20;;
2338;SDS011;1180;51.438;6.978;2022-07-29T15:16:37;10.00;;;4.93;;
2338;SDS011;1180;51.438;6.978;2022-07-29T15:19:05;5.10;;;4.43;;
2338;SDS011;1180;51.438;6.978;2022-07-29T15:21:30;6.10;;;3.50;;
2338;SDS011;1180;51.438;6.978;2022-07-29T15:23:56;6.50;;;5.07;;
2338;SDS011;1180;51.438;6.978;2022-07-29T15:26:22;5.70;;;4.50;;
2338;SDS011;1180;51.438;6.978;2022-07-29T15:28:47;4.70;;;3.70;;
2338;SDS011;1180;51.438;6.978;2022-07-29T15:31:13;4.83;;;3.23;;
2338;SDS011;1180;51.438;6.978;2022-07-29T15:33:39;5.90;;;4.20;;
2338;SDS011;1180;51.438;6.978;2022-07-29T15:36:04;5.73;;;3.27;;
2338;SDS011;1180;51.438;6.978;2022-07-29T15:38:30;3.90;;;3.50;;
2338;SDS011;1180;51.438;6.978;2022-07-29T15:40:56;4.00;;;3.70;;
2338;SDS011;1180;51.438;6.978;2022-07-29T15:43:21;5.40;;;3.67;;
2338;SDS011;1180;51.438;6.978;2022-07-29T15:45:47;7.97;;;4.00;;
2338;SDS011;1180;51.438;6.978;2022-07-29T15:48:31;4.43;;;4.00;;
2338;SDS011;1180;51.438;6.978;2022-07-29T15:50:57;5.03;;;3.70;;
2338;SDS011;1180;51.438;6.978;2022-07-29T15:53:23;3.83;;;3.37;;
2338;SDS011;1180;51.438;6.978;2022-07-29T15:55:49;5.50;;;3.30;;
2338;SDS011;1180;51.438;6.978;2022-07-29T15:58:15;11.23;;;4.53;;
2338;SDS011;1180;51.438;6.978;2022-07-29T16:00:40;4.60;;;3.57;;
2338;SDS011;1180;51.438;6.978;2022-07-29T16:03:06;4.20;;;2.83;;
2338;SDS011;1180;51.438;6.978;2022-07-29T16:05:32;10.37;;;3.43;;
2338;SDS011;1180;51.438;6.978;2022-07-29T16:07:57;4.87;;;4.27;;
2338;SDS011;1180;51.438;6.978;2022-07-29T16:10:24;3.23;;;2.90;;